sensor_id;sensor_type;location;lat;lon;timestamp;P1;durP1;ratioP1;P2;durP2;ratioP2
8458;SDS011;4266;48.816;9.154;2023-06-22T00:01:33;11.60;;;10.50;;
8458;SDS011;4266;48.816;9.154;2023-06-22T00:03:59;12.77;;;10.63;;
8458;SDS011;4266;48.816;9.154;2023-06-22T00:06:25;12.27;;;11.02;;
8458;SDS011;4266;48.816;9.154;2023-06-22T00:08:51;12.27;;;11.07;;
8458;SDS011;4266;48.816;9.154;2023-06-22T00:11:16;11.40;;;10.23;;
8458;SDS011;4266;48.816;9.154;2023-06-22T00:13:42;15.98;;;10.25;;
8458;SDS011;4266;48.816;9.154;2023-06-22T00:16:08;14.10;;;11.12;;
8458;SDS011;4266;48.816;9.154;2023-06-22T00:18:33;11.60;;;10.60;;
8458;SDS011;4266;48.816;9.154;2023-06-22T00:20:59;15.65;;;11.27;;
8458;SDS011;4266;48.816;9.154;2023-06-22T00:23:25;13.32;;;10.73;;
8458;SDS011;4266;48.816;9.154;2023-06-22T00:25:51;12.35;;;10.90;;
8458;SDS011;4266;48.816;9.154;2023-06-22T00:28:16;11.65;;;10.55;;
8458;SDS011;4266;48.816;9.154;2023-06-22T00:30:43;12.68;;;11.48;;
8458;SDS011;4266;48.816;9.154;2023-06-22T00:33:08;13.13;;;11.35;;
8458;SDS011;4266;48.816;9.154;2023-06-22T00:35:35;14.07;;;11.75;;
8458;SDS011;4266;48.816;9.154;2023-06-22T00:38:01;12.30;;;11.10;;
8458;SDS011;4266;48.816;9.154;2023-06-22T00:40:27;13.40;;;12.10;;
8458;SDS011;4266;48.816;9.154;2023-06-22T00:42:53;13.85;;;10.63;;
8458;SDS011;4266;48.816;9.154;2023-06-22T00:45:18;13.35;;;11.57;;
8458;SDS011;4266;48.816;9.154;2023-06-22T00:47:44;12.20;;;10.90;;
8458;SDS011;4266;48.816;9.154;2023-06-22T00:50:10;12.32;;;10.90;;
8458;SDS011;4266;48.816;9.154;2023-06-22T00:52:36;16.15;;;11.12;;
8458;SDS011;4266;48.816;9.154;2023-06-22T00:55:02;13.02;;;11.93;;
8458;SDS011;4266;48.816;9.154;2023-06-22T00:57:28;11.95;;;10.77;;
8458;SDS011;4266;48.816;9.154;2023-06-22T00:59:54;12.43;;;11.15;;
8458;SDS011;4266;48.816;9.154;2023-06-22T01:02:20;13.98;;;11.18;;
8458;SDS011;4266;48.816;9.154;2023-06-22T01:04:47;12.50;;;11.32;;
8458;SDS011;4266;48.816;9.154;2023-06-22T01:07:20;11.93;;;10.52;;
8458;SDS011;4266;48.816;9.154;2023-06-22T01:09:49;12.60;;;11.50;;
8458;SDS011;4266;48.816;9.154;2023-06-22T01:12:12;12.60;;;11.32;;
8458;SDS011;4266;48.816;9.154;2023-06-22T01:14:41;12.68;;;11.38;;
8458;SDS011;4266;48.816;9.154;2023-06-22T01:17:06;12.15;;;10.93;;
8458;SDS011;4266;48.816;9.154;2023-06-22T01:19:39;12.52;;;11.35;;
8458;SDS011;4266;48.816;9.154;2023-06-22T01:22:03;12.75;;;11.43;;
8458;SDS011;4266;48.816;9.154;2023-06-22T01:24:32;13.35;;;11.25;;
8458;SDS011;4266;48.816;9.154;2023-06-22T01:27:00;12.37;;;11.18;;
8458;SDS011;4266;48.816;9.154;2023-06-22T01:29:23;13.20;;;11.02;;
8458;SDS011;4266;48.816;9.154;2023-06-22T01:31:49;12.43;;;11.10;;
8458;SDS011;4266;48.816;9.154;2023-06-22T01:34:15;13.00;;;11.70;;
8458;SDS011;4266;48.816;9.154;2023-06-22T01:36:41;14.40;;;11.30;;
8458;SDS011;4266;48.816;9.154;2023-06-22T01:39:07;18.10;;;10.98;;
8458;SDS011;4266;48.816;9.154;2023-06-22T01:41:35;12.68;;;11.35;;
8458;SDS011;4266;48.816;9.154;2023-06-22T01:43:59;12.35;;;11.00;;
8458;SDS011;4266;48.816;9.154;2023-06-22T01:46:25;13.48;;;11.32;;
8458;SDS011;4266;48.816;9.154;2023-06-22T01:48:51;12.68;;;11.18;;
8458;SDS011;4266;48.816;9.154;2023-06-22T01:51:17;11.88;;;10.65;;
8458;SDS011;4266;48.816;9.154;2023-06-22T01:53:43;16.92;;;12.02;;
8458;SDS011;4266;48.816;9.154;2023-06-22T01:56:09;12.37;;;11.05;;
8458;SDS011;4266;48.816;9.154;2023-06-22T01:58:36;13.90;;;11.88;;
8458;SDS011;4266;48.816;9.154;2023-06-22T02:01:07;12.95;;;10.82;;
8458;SDS011;4266;48.816;9.154;2023-06-22T02:03:34;14.75;;;11.65;;
8458;SDS011;4266;48.816;9.154;2023-06-22T02:06:03;12.73;;;11.43;;
8458;SDS011;4266;48.816;9.154;2023-06-22T02:08:28;12.37;;;11.07;;
8458;SDS011;4266;48.816;9.154;2023-06-22T02:10:53;11.90;;;10.55;;
8458;SDS011;4266;48.816;9.154;2023-06-22T02:13:19;12.13;;;10.98;;
8458;SDS011;4266;48.816;9.154;2023-06-22T02:15:45;12.07;;;10.85;;
8458;SDS011;4266;48.816;9.154;2023-06-22T02:18:11;17.12;;;11.25;;
8458;SDS011;4266;48.816;9.154;2023-06-22T02:20:37;13.25;;;11.77;;
8458;SDS011;4266;48.816;9.154;2023-06-22T02:23:03;13.48;;;12.15;;
8458;SDS011;4266;48.816;9.154;2023-06-22T02:25:29;13.07;;;11.82;;
8458;SDS011;4266;48.816;9.154;2023-06-22T02:27:55;13.20;;;11.90;;
8458;SDS011;4266;48.816;9.154;2023-06-22T02:30:20;13.48;;;11.38;;
8458;SDS011;4266;48.816;9.154;2023-06-22T02:32:47;13.38;;;11.98;;
8458;SDS011;4266;48.816;9.154;2023-06-22T02:35:13;13.05;;;11.68;;
8458;SDS011;4266;48.816;9.154;2023-06-22T02:37:39;13.23;;;11.43;;
8458;SDS011;4266;48.816;9.154;2023-06-22T02:40:05;15.73;;;11.57;;
8458;SDS011;4266;48.816;9.154;2023-06-22T02:42:32;13.15;;;11.95;;
8458;SDS011;4266;48.816;9.154;2023-06-22T02:44:58;16.35;;;12.20;;
8458;SDS011;4266;48.816;9.154;2023-06-22T02:47:23;14.15;;;12.13;;
8458;SDS011;4266;48.816;9.154;2023-06-22T02:49:49;15.32;;;12.10;;
8458;SDS011;4266;48.816;9.154;2023-06-22T02:52:15;16.45;;;12.45;;
8458;SDS011;4266;48.816;9.154;2023-06-22T02:54:40;15.48;;;12.80;;
8458;SDS011;4266;48.816;9.154;2023-06-22T02:57:06;14.57;;;11.90;;
8458;SDS011;4266;48.816;9.154;2023-06-22T03:02:35;13.23;;;12.00;;
8458;SDS011;4266;48.816;9.154;2023-06-22T03:05:01;14.50;;;12.98;;
8458;SDS011;4266;48.816;9.154;2023-06-22T03:07:28;13.10;;;11.90;;
8458;SDS011;4266;48.816;9.154;2023-06-22T03:09:53;15.02;;;11.93;;
8458;SDS011;4266;48.816;9.154;2023-06-22T03:12:19;17.55;;;12.02;;
8458;SDS011;4266;48.816;9.154;2023-06-22T03:14:45;14.00;;;12.07;;
8458;SDS011;4266;48.816;9.154;2023-06-22T03:17:11;14.15;;;12.52;;
8458;SDS011;4266;48.816;9.154;2023-06-22T03:19:37;13.32;;;12.02;;
8458;SDS011;4266;48.816;9.154;2023-06-22T03:22:03;16.02;;;12.18;;
8458;SDS011;4266;48.816;9.154;2023-06-22T03:24:29;17.92;;;12.77;;
8458;SDS011;4266;48.816;9.154;2023-06-22T03:26:55;14.18;;;12.75;;
8458;SDS011;4266;48.816;9.154;2023-06-22T03:29:21;16.45;;;12.20;;
8458;SDS011;4266;48.816;9.154;2023-06-22T03:31:47;14.77;;;12.32;;
8458;SDS011;4266;48.816;9.154;2023-06-22T03:34:13;14.25;;;12.10;;
8458;SDS011;4266;48.816;9.154;2023-06-22T03:36:39;17.67;;;12.68;;
8458;SDS011;4266;48.816;9.154;2023-06-22T03:39:04;12.88;;;11.45;;
8458;SDS011;4266;48.816;9.154;2023-06-22T03:41:30;13.20;;;11.20;;
8458;SDS011;4266;48.816;9.154;2023-06-22T03:43:57;13.38;;;11.85;;
8458;SDS011;4266;48.816;9.154;2023-06-22T03:46:23;12.35;;;11.15;;
8458;SDS011;4266;48.816;9.154;2023-06-22T03:48:49;13.02;;;11.70;;
8458;SDS011;4266;48.816;9.154;2023-06-22T03:51:15;14.35;;;12.25;;
8458;SDS011;4266;48.816;9.154;2023-06-22T03:53:41;12.88;;;11.32;;
8458;SDS011;4266;48.816;9.154;2023-06-22T03:56:07;21.42;;;12.23;;
8458;SDS011;4266;48.816;9.154;2023-06-22T03:58:33;15.35;;;12.80;;
8458;SDS011;4266;48.816;9.154;2023-06-22T04:00:59;14.15;;;12.73;;
8458;SDS011;4266;48.816;9.154;2023-06-22T04:03:24;12.85;;;11.55;;
8458;SDS011;4266;48.816;9.154;2023-06-22T04:05:50;13.50;;;12.02;;
8458;SDS011;4266;48.816;9.154;2023-06-22T04:08:16;13.23;;;11.90;;
8458;SDS011;4266;48.816;9.154;2023-06-22T04:10:42;12.98;;;11.77;;
8458;SDS011;4266;48.816;9.154;2023-06-22T04:13:08;13.07;;;11.73;;
8458;SDS011;4266;48.816;9.154;2023-06-22T04:15:34;12.85;;;11.55;;
8458;SDS011;4266;48.816;9.154;2023-06-22T04:18:00;13.38;;;12.00;;
8458;SDS011;4266;48.816;9.154;2023-06-22T04:20:26;15.85;;;12.02;;
8458;SDS011;4266;48.816;9.154;2023-06-22T04:22:52;14.10;;;12.45;;
8458;SDS011;4266;48.816;9.154;2023-06-22T04:25:17;13.07;;;11.82;;
8458;SDS011;4266;48.816;9.154;2023-06-22T04:27:43;14.65;;;11.75;;
8458;SDS011;4266;48.816;9.154;2023-06-22T04:30:09;16.08;;;11.95;;
8458;SDS011;4266;48.816;9.154;2023-06-22T04:32:35;13.60;;;12.13;;
8458;SDS011;4266;48.816;9.154;2023-06-22T04:37:57;12.73;;;11.43;;
8458;SDS011;4266;48.816;9.154;2023-06-22T04:40:22;14.13;;;11.77;;
8458;SDS011;4266;48.816;9.154;2023-06-22T04:42:48;17.25;;;11.43;;
8458;SDS011;4266;48.816;9.154;2023-06-22T04:45:14;15.70;;;11.63;;
8458;SDS011;4266;48.816;9.154;2023-06-22T04:50:18;12.10;;;11.00;;
8458;SDS011;4266;48.816;9.154;2023-06-22T04:55:35;13.25;;;11.85;;
8458;SDS011;4266;48.816;9.154;2023-06-22T04:58:01;14.30;;;11.27;;
8458;SDS011;4266;48.816;9.154;2023-06-22T05:00:27;16.27;;;11.73;;
8458;SDS011;4266;48.816;9.154;2023-06-22T05:02:53;14.23;;;11.15;;
8458;SDS011;4266;48.816;9.154;2023-06-22T05:05:19;13.30;;;11.18;;
8458;SDS011;4266;48.816;9.154;2023-06-22T05:07:45;12.68;;;11.43;;
8458;SDS011;4266;48.816;9.154;2023-06-22T05:10:11;14.15;;;10.93;;
8458;SDS011;4266;48.816;9.154;2023-06-22T05:12:36;12.77;;;10.85;;
8458;SDS011;4266;48.816;9.154;2023-06-22T05:15:02;15.60;;;10.52;;
8458;SDS011;4266;48.816;9.154;2023-06-22T05:20:20;16.17;;;10.13;;
8458;SDS011;4266;48.816;9.154;2023-06-22T05:22:46;15.20;;;10.13;;
8458;SDS011;4266;48.816;9.154;2023-06-22T05:25:13;11.32;;;10.20;;
8458;SDS011;4266;48.816;9.154;2023-06-22T05:27:38;14.82;;;10.45;;
8458;SDS011;4266;48.816;9.154;2023-06-22T05:30:04;17.90;;;9.85;;
8458;SDS011;4266;48.816;9.154;2023-06-22T05:32:31;14.85;;;9.85;;
8458;SDS011;4266;48.816;9.154;2023-06-22T05:34:56;17.23;;;9.35;;
8458;SDS011;4266;48.816;9.154;2023-06-22T05:37:22;16.17;;;9.85;;
8458;SDS011;4266;48.816;9.154;2023-06-22T05:39:49;11.65;;;10.38;;
8458;SDS011;4266;48.816;9.154;2023-06-22T05:42:14;16.15;;;10.73;;
8458;SDS011;4266;48.816;9.154;2023-06-22T05:44:40;13.57;;;10.27;;
8458;SDS011;4266;48.816;9.154;2023-06-22T05:47:06;10.98;;;9.85;;
8458;SDS011;4266;48.816;9.154;2023-06-22T05:49:31;10.10;;;9.07;;
8458;SDS011;4266;48.816;9.154;2023-06-22T05:51:57;11.52;;;9.50;;
8458;SDS011;4266;48.816;9.154;2023-06-22T05:54:23;14.50;;;9.80;;
8458;SDS011;4266;48.816;9.154;2023-06-22T05:59:27;12.05;;;9.40;;
8458;SDS011;4266;48.816;9.154;2023-06-22T06:01:53;13.32;;;8.95;;
8458;SDS011;4266;48.816;9.154;2023-06-22T06:04:18;11.55;;;8.80;;
8458;SDS011;4266;48.816;9.154;2023-06-22T06:06:44;11.98;;;9.48;;
8458;SDS011;4266;48.816;9.154;2023-06-22T06:09:10;11.95;;;9.45;;
8458;SDS011;4266;48.816;9.154;2023-06-22T06:11:35;9.48;;;8.05;;
8458;SDS011;4266;48.816;9.154;2023-06-22T06:14:02;11.30;;;7.97;;
8458;SDS011;4266;48.816;9.154;2023-06-22T06:16:28;11.70;;;8.25;;
8458;SDS011;4266;48.816;9.154;2023-06-22T06:18:54;11.75;;;8.88;;
8458;SDS011;4266;48.816;9.154;2023-06-22T06:21:20;9.57;;;8.55;;
8458;SDS011;4266;48.816;9.154;2023-06-22T06:23:46;15.02;;;9.73;;
8458;SDS011;4266;48.816;9.154;2023-06-22T06:26:12;10.18;;;8.57;;
8458;SDS011;4266;48.816;9.154;2023-06-22T06:28:38;10.73;;;9.00;;
8458;SDS011;4266;48.816;9.154;2023-06-22T06:31:04;10.30;;;9.10;;
8458;SDS011;4266;48.816;9.154;2023-06-22T06:33:30;13.95;;;8.95;;
8458;SDS011;4266;48.816;9.154;2023-06-22T06:35:56;11.25;;;8.73;;
8458;SDS011;4266;48.816;9.154;2023-06-22T06:38:22;12.70;;;9.45;;
8458;SDS011;4266;48.816;9.154;2023-06-22T06:40:47;11.18;;;8.13;;
8458;SDS011;4266;48.816;9.154;2023-06-22T06:43:13;8.20;;;7.12;;
8458;SDS011;4266;48.816;9.154;2023-06-22T06:45:38;9.20;;;6.50;;
8458;SDS011;4266;48.816;9.154;2023-06-22T06:48:05;9.07;;;6.78;;
8458;SDS011;4266;48.816;9.154;2023-06-22T06:50:31;7.90;;;7.20;;
8458;SDS011;4266;48.816;9.154;2023-06-22T06:52:57;9.13;;;7.82;;
8458;SDS011;4266;48.816;9.154;2023-06-22T06:55:22;9.75;;;7.80;;
8458;SDS011;4266;48.816;9.154;2023-06-22T06:57:48;8.88;;;8.05;;
8458;SDS011;4266;48.816;9.154;2023-06-22T07:00:14;12.37;;;7.00;;
8458;SDS011;4266;48.816;9.154;2023-06-22T07:02:42;8.50;;;7.60;;
8458;SDS011;4266;48.816;9.154;2023-06-22T07:05:07;11.90;;;8.25;;
8458;SDS011;4266;48.816;9.154;2023-06-22T07:07:33;12.48;;;7.90;;
8458;SDS011;4266;48.816;9.154;2023-06-22T07:09:59;12.75;;;7.43;;
8458;SDS011;4266;48.816;9.154;2023-06-22T07:12:25;9.02;;;6.22;;
8458;SDS011;4266;48.816;9.154;2023-06-22T07:14:51;8.93;;;7.57;;
8458;SDS011;4266;48.816;9.154;2023-06-22T07:17:17;10.15;;;6.82;;
8458;SDS011;4266;48.816;9.154;2023-06-22T07:19:42;12.05;;;8.30;;
8458;SDS011;4266;48.816;9.154;2023-06-22T07:22:08;7.03;;;6.15;;
8458;SDS011;4266;48.816;9.154;2023-06-22T07:24:34;13.25;;;7.20;;
8458;SDS011;4266;48.816;9.154;2023-06-22T07:27:00;8.15;;;6.85;;
8458;SDS011;4266;48.816;9.154;2023-06-22T07:29:26;7.72;;;6.32;;
8458;SDS011;4266;48.816;9.154;2023-06-22T07:31:51;8.10;;;7.30;;
8458;SDS011;4266;48.816;9.154;2023-06-22T07:34:17;9.05;;;6.57;;
8458;SDS011;4266;48.816;9.154;2023-06-22T07:36:43;8.45;;;6.47;;
8458;SDS011;4266;48.816;9.154;2023-06-22T07:39:08;7.80;;;7.10;;
8458;SDS011;4266;48.816;9.154;2023-06-22T07:41:34;9.45;;;7.43;;
8458;SDS011;4266;48.816;9.154;2023-06-22T07:44:01;10.18;;;6.95;;
8458;SDS011;4266;48.816;9.154;2023-06-22T07:46:26;8.90;;;6.70;;
8458;SDS011;4266;48.816;9.154;2023-06-22T07:48:52;8.05;;;6.18;;
8458;SDS011;4266;48.816;9.154;2023-06-22T07:51:18;15.77;;;8.07;;
8458;SDS011;4266;48.816;9.154;2023-06-22T07:53:44;8.48;;;7.03;;
8458;SDS011;4266;48.816;9.154;2023-06-22T07:56:10;15.57;;;6.72;;
8458;SDS011;4266;48.816;9.154;2023-06-22T07:58:35;10.30;;;6.90;;
8458;SDS011;4266;48.816;9.154;2023-06-22T08:01:01;10.02;;;6.60;;
8458;SDS011;4266;48.816;9.154;2023-06-22T08:03:27;11.15;;;6.57;;
8458;SDS011;4266;48.816;9.154;2023-06-22T08:05:53;12.32;;;6.57;;
8458;SDS011;4266;48.816;9.154;2023-06-22T08:08:18;12.55;;;6.22;;
8458;SDS011;4266;48.816;9.154;2023-06-22T08:10:44;11.82;;;7.40;;
8458;SDS011;4266;48.816;9.154;2023-06-22T08:13:10;9.85;;;6.47;;
8458;SDS011;4266;48.816;9.154;2023-06-22T08:15:35;11.45;;;7.22;;
8458;SDS011;4266;48.816;9.154;2023-06-22T08:18:01;10.30;;;6.50;;
8458;SDS011;4266;48.816;9.154;2023-06-22T08:20:27;7.80;;;6.30;;
8458;SDS011;4266;48.816;9.154;2023-06-22T08:22:53;11.35;;;6.80;;
8458;SDS011;4266;48.816;9.154;2023-06-22T08:25:18;8.77;;;6.28;;
8458;SDS011;4266;48.816;9.154;2023-06-22T08:27:45;8.77;;;6.12;;
8458;SDS011;4266;48.816;9.154;2023-06-22T08:30:10;8.90;;;5.97;;
8458;SDS011;4266;48.816;9.154;2023-06-22T08:32:36;12.13;;;6.20;;
8458;SDS011;4266;48.816;9.154;2023-06-22T08:35:02;9.63;;;6.03;;
8458;SDS011;4266;48.816;9.154;2023-06-22T08:37:28;11.12;;;6.25;;
8458;SDS011;4266;48.816;9.154;2023-06-22T08:39:58;7.80;;;5.87;;
8458;SDS011;4266;48.816;9.154;2023-06-22T08:42:24;6.80;;;5.97;;
8458;SDS011;4266;48.816;9.154;2023-06-22T08:44:50;9.57;;;6.40;;
8458;SDS011;4266;48.816;9.154;2023-06-22T08:47:15;9.63;;;6.25;;
8458;SDS011;4266;48.816;9.154;2023-06-22T08:49:41;10.05;;;6.40;;
8458;SDS011;4266;48.816;9.154;2023-06-22T08:52:06;13.27;;;6.78;;
8458;SDS011;4266;48.816;9.154;2023-06-22T08:54:33;12.90;;;7.28;;
8458;SDS011;4266;48.816;9.154;2023-06-22T08:56:58;13.27;;;6.90;;
8458;SDS011;4266;48.816;9.154;2023-06-22T08:59:25;8.48;;;6.15;;
8458;SDS011;4266;48.816;9.154;2023-06-22T09:01:50;7.57;;;6.22;;
8458;SDS011;4266;48.816;9.154;2023-06-22T09:04:16;11.40;;;5.78;;
8458;SDS011;4266;48.816;9.154;2023-06-22T09:06:42;11.88;;;5.93;;
8458;SDS011;4266;48.816;9.154;2023-06-22T09:09:10;13.02;;;6.80;;
8458;SDS011;4266;48.816;9.154;2023-06-22T09:11:36;8.85;;;5.70;;
8458;SDS011;4266;48.816;9.154;2023-06-22T09:14:02;9.43;;;6.70;;
8458;SDS011;4266;48.816;9.154;2023-06-22T09:16:28;13.10;;;6.78;;
8458;SDS011;4266;48.816;9.154;2023-06-22T09:18:54;11.12;;;6.10;;
8458;SDS011;4266;48.816;9.154;2023-06-22T09:21:20;11.35;;;6.07;;
8458;SDS011;4266;48.816;9.154;2023-06-22T09:23:46;12.43;;;6.30;;
8458;SDS011;4266;48.816;9.154;2023-06-22T09:26:12;12.80;;;6.35;;
8458;SDS011;4266;48.816;9.154;2023-06-22T09:28:37;12.93;;;6.75;;
8458;SDS011;4266;48.816;9.154;2023-06-22T09:31:03;9.50;;;6.93;;
8458;SDS011;4266;48.816;9.154;2023-06-22T09:33:29;9.07;;;6.28;;
8458;SDS011;4266;48.816;9.154;2023-06-22T09:35:55;9.13;;;6.65;;
8458;SDS011;4266;48.816;9.154;2023-06-22T09:38:21;13.43;;;7.10;;
8458;SDS011;4266;48.816;9.154;2023-06-22T09:40:46;8.88;;;5.97;;
8458;SDS011;4266;48.816;9.154;2023-06-22T09:43:12;13.07;;;6.72;;
8458;SDS011;4266;48.816;9.154;2023-06-22T09:45:38;12.75;;;6.30;;
8458;SDS011;4266;48.816;9.154;2023-06-22T09:48:04;11.38;;;6.30;;
8458;SDS011;4266;48.816;9.154;2023-06-22T09:50:30;18.00;;;6.32;;
8458;SDS011;4266;48.816;9.154;2023-06-22T09:52:56;15.23;;;6.68;;
8458;SDS011;4266;48.816;9.154;2023-06-22T09:55:22;16.90;;;6.18;;
8458;SDS011;4266;48.816;9.154;2023-06-22T09:57:48;12.37;;;6.12;;
8458;SDS011;4266;48.816;9.154;2023-06-22T10:00:15;14.18;;;6.45;;
8458;SDS011;4266;48.816;9.154;2023-06-22T10:02:41;11.98;;;7.15;;
8458;SDS011;4266;48.816;9.154;2023-06-22T10:05:06;10.48;;;6.30;;
8458;SDS011;4266;48.816;9.154;2023-06-22T10:07:32;12.55;;;6.20;;
8458;SDS011;4266;48.816;9.154;2023-06-22T10:09:58;23.08;;;6.65;;
8458;SDS011;4266;48.816;9.154;2023-06-22T10:12:23;20.33;;;7.15;;
8458;SDS011;4266;48.816;9.154;2023-06-22T10:14:50;14.15;;;6.65;;
8458;SDS011;4266;48.816;9.154;2023-06-22T10:17:15;13.43;;;6.28;;
8458;SDS011;4266;48.816;9.154;2023-06-22T10:19:42;15.88;;;7.40;;
8458;SDS011;4266;48.816;9.154;2023-06-22T10:22:07;12.07;;;7.03;;
8458;SDS011;4266;48.816;9.154;2023-06-22T10:24:33;10.55;;;6.90;;
8458;SDS011;4266;48.816;9.154;2023-06-22T10:26:59;17.30;;;6.78;;
8458;SDS011;4266;48.816;9.154;2023-06-22T10:29:24;15.80;;;7.53;;
8458;SDS011;4266;48.816;9.154;2023-06-22T10:31:50;10.93;;;6.62;;
8458;SDS011;4266;48.816;9.154;2023-06-22T10:34:16;14.05;;;6.90;;
8458;SDS011;4266;48.816;9.154;2023-06-22T10:36:42;17.77;;;7.55;;
8458;SDS011;4266;48.816;9.154;2023-06-22T10:39:08;14.95;;;7.20;;
8458;SDS011;4266;48.816;9.154;2023-06-22T10:41:34;16.42;;;7.65;;
8458;SDS011;4266;48.816;9.154;2023-06-22T10:43:59;22.52;;;7.95;;
8458;SDS011;4266;48.816;9.154;2023-06-22T10:46:26;11.85;;;7.20;;
8458;SDS011;4266;48.816;9.154;2023-06-22T10:48:51;13.45;;;7.45;;
8458;SDS011;4266;48.816;9.154;2023-06-22T10:51:17;20.92;;;7.40;;
8458;SDS011;4266;48.816;9.154;2023-06-22T10:53:43;16.48;;;7.22;;
8458;SDS011;4266;48.816;9.154;2023-06-22T10:56:09;18.37;;;7.87;;
8458;SDS011;4266;48.816;9.154;2023-06-22T10:58:35;12.73;;;6.87;;
8458;SDS011;4266;48.816;9.154;2023-06-22T11:01:01;12.93;;;6.60;;
8458;SDS011;4266;48.816;9.154;2023-06-22T11:03:27;20.42;;;7.60;;
8458;SDS011;4266;48.816;9.154;2023-06-22T11:05:53;15.02;;;7.72;;
8458;SDS011;4266;48.816;9.154;2023-06-22T11:08:18;16.65;;;7.37;;
8458;SDS011;4266;48.816;9.154;2023-06-22T11:10:45;15.60;;;7.93;;
8458;SDS011;4266;48.816;9.154;2023-06-22T11:13:10;21.12;;;7.30;;
8458;SDS011;4266;48.816;9.154;2023-06-22T11:15:36;16.62;;;7.28;;
8458;SDS011;4266;48.816;9.154;2023-06-22T11:18:02;14.13;;;7.05;;
8458;SDS011;4266;48.816;9.154;2023-06-22T11:20:28;12.40;;;7.43;;
8458;SDS011;4266;48.816;9.154;2023-06-22T11:22:53;11.40;;;7.28;;
8458;SDS011;4266;48.816;9.154;2023-06-22T11:25:19;15.73;;;6.70;;
8458;SDS011;4266;48.816;9.154;2023-06-22T11:27:45;14.50;;;6.85;;
8458;SDS011;4266;48.816;9.154;2023-06-22T11:30:11;12.23;;;7.60;;
8458;SDS011;4266;48.816;9.154;2023-06-22T11:32:37;11.63;;;7.18;;
8458;SDS011;4266;48.816;9.154;2023-06-22T11:35:03;16.92;;;7.03;;
8458;SDS011;4266;48.816;9.154;2023-06-22T11:37:29;15.40;;;7.03;;
8458;SDS011;4266;48.816;9.154;2023-06-22T11:39:55;11.07;;;6.90;;
8458;SDS011;4266;48.816;9.154;2023-06-22T11:42:21;21.58;;;7.15;;
8458;SDS011;4266;48.816;9.154;2023-06-22T11:44:47;17.20;;;6.57;;
8458;SDS011;4266;48.816;9.154;2023-06-22T11:47:12;14.02;;;8.10;;
8458;SDS011;4266;48.816;9.154;2023-06-22T11:49:39;13.55;;;7.00;;
8458;SDS011;4266;48.816;9.154;2023-06-22T11:52:04;15.40;;;7.07;;
8458;SDS011;4266;48.816;9.154;2023-06-22T11:54:31;16.83;;;7.90;;
8458;SDS011;4266;48.816;9.154;2023-06-22T11:56:57;15.90;;;7.93;;
8458;SDS011;4266;48.816;9.154;2023-06-22T11:59:23;17.08;;;7.32;;
8458;SDS011;4266;48.816;9.154;2023-06-22T12:01:48;16.85;;;7.07;;
8458;SDS011;4266;48.816;9.154;2023-06-22T12:04:15;20.20;;;7.50;;
8458;SDS011;4266;48.816;9.154;2023-06-22T12:06:40;23.67;;;8.18;;
8458;SDS011;4266;48.816;9.154;2023-06-22T12:09:07;19.85;;;7.37;;
8458;SDS011;4266;48.816;9.154;2023-06-22T12:11:32;18.15;;;7.07;;
8458;SDS011;4266;48.816;9.154;2023-06-22T12:13:58;17.48;;;7.07;;
8458;SDS011;4266;48.816;9.154;2023-06-22T12:16:24;17.52;;;7.72;;
8458;SDS011;4266;48.816;9.154;2023-06-22T12:18:49;18.92;;;7.47;;
8458;SDS011;4266;48.816;9.154;2023-06-22T12:21:15;19.60;;;7.80;;
8458;SDS011;4266;48.816;9.154;2023-06-22T12:23:41;12.63;;;7.28;;
8458;SDS011;4266;48.816;9.154;2023-06-22T12:26:06;15.23;;;7.60;;
8458;SDS011;4266;48.816;9.154;2023-06-22T12:28:32;14.45;;;7.10;;
8458;SDS011;4266;48.816;9.154;2023-06-22T12:30:58;15.68;;;6.93;;
8458;SDS011;4266;48.816;9.154;2023-06-22T12:33:23;13.45;;;7.12;;
8458;SDS011;4266;48.816;9.154;2023-06-22T12:35:49;14.25;;;7.35;;
8458;SDS011;4266;48.816;9.154;2023-06-22T12:38:15;15.32;;;7.05;;
8458;SDS011;4266;48.816;9.154;2023-06-22T12:40:40;17.58;;;7.20;;
8458;SDS011;4266;48.816;9.154;2023-06-22T12:43:06;17.77;;;7.85;;
8458;SDS011;4266;48.816;9.154;2023-06-22T12:45:32;17.02;;;7.97;;
8458;SDS011;4266;48.816;9.154;2023-06-22T12:47:57;12.40;;;7.57;;
8458;SDS011;4266;48.816;9.154;2023-06-22T12:50:23;12.37;;;7.30;;
8458;SDS011;4266;48.816;9.154;2023-06-22T12:52:49;15.88;;;6.53;;
8458;SDS011;4266;48.816;9.154;2023-06-22T12:55:15;12.27;;;7.22;;
8458;SDS011;4266;48.816;9.154;2023-06-22T12:57:41;14.57;;;7.22;;
8458;SDS011;4266;48.816;9.154;2023-06-22T13:00:07;18.52;;;7.32;;
8458;SDS011;4266;48.816;9.154;2023-06-22T13:02:34;12.52;;;7.00;;
8458;SDS011;4266;48.816;9.154;2023-06-22T13:05:00;11.77;;;7.45;;
8458;SDS011;4266;48.816;9.154;2023-06-22T13:07:26;22.83;;;7.37;;
8458;SDS011;4266;48.816;9.154;2023-06-22T13:09:51;17.25;;;7.60;;
8458;SDS011;4266;48.816;9.154;2023-06-22T13:12:17;14.52;;;7.50;;
8458;SDS011;4266;48.816;9.154;2023-06-22T13:14:43;17.62;;;8.27;;
8458;SDS011;4266;48.816;9.154;2023-06-22T13:17:08;20.92;;;8.38;;
8458;SDS011;4266;48.816;9.154;2023-06-22T13:19:34;14.23;;;7.37;;
8458;SDS011;4266;48.816;9.154;2023-06-22T13:22:00;17.42;;;8.15;;
8458;SDS011;4266;48.816;9.154;2023-06-22T13:24:25;11.10;;;7.40;;
8458;SDS011;4266;48.816;9.154;2023-06-22T13:26:51;15.85;;;7.43;;
8458;SDS011;4266;48.816;9.154;2023-06-22T13:29:17;14.52;;;8.07;;
8458;SDS011;4266;48.816;9.154;2023-06-22T13:31:42;17.52;;;7.68;;
8458;SDS011;4266;48.816;9.154;2023-06-22T13:34:08;17.60;;;7.95;;
8458;SDS011;4266;48.816;9.154;2023-06-22T13:36:33;15.20;;;7.87;;
8458;SDS011;4266;48.816;9.154;2023-06-22T13:38:59;18.15;;;7.65;;
8458;SDS011;4266;48.816;9.154;2023-06-22T13:41:25;14.27;;;7.60;;
8458;SDS011;4266;48.816;9.154;2023-06-22T13:43:51;12.70;;;7.47;;
8458;SDS011;4266;48.816;9.154;2023-06-22T13:46:16;17.23;;;8.02;;
8458;SDS011;4266;48.816;9.154;2023-06-22T13:48:44;15.80;;;7.25;;
8458;SDS011;4266;48.816;9.154;2023-06-22T13:51:10;18.37;;;7.55;;
8458;SDS011;4266;48.816;9.154;2023-06-22T13:53:35;18.35;;;7.53;;
8458;SDS011;4266;48.816;9.154;2023-06-22T13:56:01;19.98;;;8.05;;
8458;SDS011;4266;48.816;9.154;2023-06-22T13:58:27;17.40;;;7.55;;
8458;SDS011;4266;48.816;9.154;2023-06-22T14:00:53;13.52;;;7.65;;
8458;SDS011;4266;48.816;9.154;2023-06-22T14:03:19;13.88;;;7.72;;
8458;SDS011;4266;48.816;9.154;2023-06-22T14:05:44;17.62;;;6.62;;
8458;SDS011;4266;48.816;9.154;2023-06-22T14:08:11;13.32;;;6.55;;
8458;SDS011;4266;48.816;9.154;2023-06-22T14:10:36;12.25;;;6.95;;
8458;SDS011;4266;48.816;9.154;2023-06-22T14:13:02;15.80;;;7.00;;
8458;SDS011;4266;48.816;9.154;2023-06-22T14:15:28;14.63;;;7.25;;
8458;SDS011;4266;48.816;9.154;2023-06-22T14:17:54;14.95;;;7.07;;
8458;SDS011;4266;48.816;9.154;2023-06-22T14:20:19;14.85;;;6.82;;
8458;SDS011;4266;48.816;9.154;2023-06-22T14:22:45;15.32;;;7.28;;
8458;SDS011;4266;48.816;9.154;2023-06-22T14:25:12;14.98;;;6.70;;
8458;SDS011;4266;48.816;9.154;2023-06-22T14:27:37;17.70;;;6.90;;
8458;SDS011;4266;48.816;9.154;2023-06-22T14:30:03;15.27;;;6.60;;
8458;SDS011;4266;48.816;9.154;2023-06-22T14:32:30;19.17;;;7.53;;
8458;SDS011;4266;48.816;9.154;2023-06-22T14:34:55;10.70;;;6.75;;
8458;SDS011;4266;48.816;9.154;2023-06-22T14:37:21;16.42;;;6.97;;
8458;SDS011;4266;48.816;9.154;2023-06-22T14:39:46;12.00;;;6.68;;
8458;SDS011;4266;48.816;9.154;2023-06-22T14:42:12;10.65;;;6.53;;
8458;SDS011;4266;48.816;9.154;2023-06-22T14:44:38;19.58;;;6.70;;
8458;SDS011;4266;48.816;9.154;2023-06-22T14:47:04;14.00;;;7.22;;
8458;SDS011;4266;48.816;9.154;2023-06-22T14:49:30;17.37;;;6.25;;
8458;SDS011;4266;48.816;9.154;2023-06-22T14:51:55;17.85;;;6.68;;
8458;SDS011;4266;48.816;9.154;2023-06-22T14:54:21;14.20;;;6.32;;
8458;SDS011;4266;48.816;9.154;2023-06-22T14:56:48;16.85;;;6.28;;
8458;SDS011;4266;48.816;9.154;2023-06-22T14:59:13;16.40;;;6.35;;
8458;SDS011;4266;48.816;9.154;2023-06-22T15:01:39;15.50;;;5.85;;
8458;SDS011;4266;48.816;9.154;2023-06-22T15:04:04;17.00;;;5.43;;
8458;SDS011;4266;48.816;9.154;2023-06-22T15:06:31;11.27;;;4.80;;